createdAt,value
2023-04-24T00:01:38.141Z,72.48
2023-04-24T00:04:05.260Z,72.76
2023-04-24T00:06:34.935Z,72.68
2023-04-24T00:09:02.227Z,72.44
2023-04-24T00:11:29.455Z,72.83
2023-04-24T00:13:57.328Z,72.61
2023-04-24T00:16:24.450Z,72.56
2023-04-24T00:18:51.231Z,72.61
2023-04-24T00:21:18.888Z,72.82
2023-04-24T00:23:45.768Z,72.94
2023-04-24T00:26:12.903Z,72.65
2023-04-24T00:28:39.702Z,72.97
2023-04-24T00:31:06.677Z,72.69
2023-04-24T00:33:33.459Z,73.00
2023-04-24T00:36:00.341Z,72.82
2023-04-24T00:38:27.141Z,73.17
2023-04-24T00:40:55.282Z,73.26
2023-04-24T00:43:22.375Z,73.01
2023-04-24T00:45:49.905Z,73.16
2023-04-24T00:48:17.528Z,73.02
2023-04-24T00:50:44.632Z,73.16
2023-04-24T00:53:11.973Z,73.52
2023-04-24T00:55:38.827Z,73.33
2023-04-24T00:58:06.127Z,73.30
2023-04-24T01:00:32.898Z,73.34
2023-04-24T01:03:03.211Z,73.36
2023-04-24T01:05:30.062Z,73.60
2023-04-24T01:07:57.427Z,73.49
2023-04-24T01:10:24.669Z,73.49
2023-04-24T01:12:53.300Z,73.52
2023-04-24T01:15:20.218Z,73.30
2023-04-24T01:17:47.888Z,73.73
2023-04-24T01:20:15.875Z,73.74
2023-04-24T01:22:43.238Z,73.38
2023-04-24T01:25:10.047Z,73.43
2023-04-24T01:27:36.868Z,73.66
2023-04-24T01:30:06.580Z,73.76
2023-04-24T01:32:33.535Z,73.92
2023-04-24T01:35:00.720Z,73.78
2023-04-24T01:37:28.108Z,74.05
2023-04-24T01:39:55.134Z,73.85
2023-04-24T01:42:22.652Z,73.79
2023-04-24T01:44:49.576Z,74.08
2023-04-24T01:47:16.600Z,73.72
2023-04-24T01:49:43.710Z,74.10
2023-04-24T01:52:12.640Z,73.94
2023-04-24T01:54:39.402Z,74.03
2023-04-24T01:57:06.695Z,73.79
2023-04-24T01:59:34.621Z,74.05
2023-04-24T02:02:01.604Z,74.28
2023-04-24T02:04:28.516Z,74.03
2023-04-24T02:06:55.640Z,74.20
2023-04-24T02:09:22.470Z,74.47
2023-04-24T02:11:49.318Z,74.22
2023-04-24T02:14:16.143Z,74.58
2023-04-24T02:16:43.627Z,74.34
2023-04-24T02:19:10.727Z,74.52
2023-04-24T02:21:37.592Z,74.90
2023-04-24T02:24:04.484Z,74.71
2023-04-24T02:26:32.953Z,74.72
2023-04-24T02:28:59.819Z,74.46
2023-04-24T02:31:26.638Z,74.58
2023-04-24T02:33:53.444Z,74.63
2023-04-24T02:36:20.230Z,74.71
2023-04-24T02:38:48.926Z,74.80
2023-04-24T02:41:15.749Z,74.66
2023-04-24T02:43:43.169Z,74.76
2023-04-24T02:46:10.111Z,74.80
2023-04-24T02:48:37.006Z,74.84
2023-04-24T02:51:03.917Z,74.73
2023-04-24T02:53:31.782Z,74.92
2023-04-24T02:55:58.550Z,75.14
2023-04-24T02:58:26.318Z,75.14
2023-04-24T03:00:57.126Z,75.10
2023-04-24T03:03:24.112Z,74.78
2023-04-24T03:05:51.538Z,75.15
2023-04-24T03:08:18.810Z,75.16
2023-04-24T03:10:48.041Z,74.86
2023-04-24T03:13:16.825Z,75.07
2023-04-24T03:15:44.142Z,75.18
2023-04-24T03:18:11.154Z,75.21
2023-04-24T03:20:38.741Z,74.94
2023-04-24T03:23:05.656Z,75.20
2023-04-24T03:25:32.733Z,74.94
2023-04-24T03:27:59.674Z,74.89
2023-04-24T03:30:36.287Z,74.77
2023-04-24T03:33:04.337Z,74.83
2023-04-24T03:35:35.061Z,74.98
2023-04-24T03:38:05.953Z,75.17
2023-04-24T03:40:53.973Z,75.25
2023-04-24T03:43:36.852Z,75.49
2023-04-24T03:46:05.414Z,75.39
2023-04-24T03:48:36.389Z,75.47
2023-04-24T03:51:03.301Z,75.33
2023-04-24T03:53:31.735Z,75.45
2023-04-24T03:55:59.690Z,75.39
2023-04-24T03:58:27.565Z,75.62
2023-04-24T04:00:58.118Z,75.73
2023-04-24T04:03:50.585Z,75.49
2023-04-24T04:06:22.686Z,75.83
2023-04-24T04:08:51.274Z,75.65
2023-04-24T04:11:18.492Z,75.73
2023-04-24T04:13:46.817Z,75.77
2023-04-24T04:16:13.898Z,76.06
2023-04-24T04:18:40.759Z,75.73
2023-04-24T04:21:08.186Z,75.98
2023-04-24T04:23:35.264Z,75.85
2023-04-24T04:26:17.074Z,75.91
2023-04-24T04:28:56.684Z,76.02
2023-04-24T04:31:24.683Z,76.31
2023-04-24T04:33:52.291Z,76.24
2023-04-24T04:36:19.288Z,76.37
2023-04-24T04:38:51.308Z,76.10
2023-04-24T04:41:43.097Z,76.18
2023-04-24T04:44:11.058Z,76.42
2023-04-24T04:46:41.721Z,76.28
2023-04-24T04:49:29.683Z,76.63
2023-04-24T04:51:56.767Z,76.42
2023-04-24T04:54:28.471Z,76.61
2023-04-24T04:56:58.437Z,76.64
2023-04-24T04:59:25.505Z,76.40
2023-04-24T05:01:58.705Z,76.69
2023-04-24T05:04:25.910Z,76.55
2023-04-24T05:06:52.964Z,76.34
2023-04-24T05:09:21.315Z,76.72
2023-04-24T05:11:52.958Z,76.62
2023-04-24T05:14:20.266Z,76.70
2023-04-24T05:16:47.256Z,76.50
2023-04-24T05:19:17.070Z,76.71
2023-04-24T05:21:46.498Z,76.77
2023-04-24T05:24:13.399Z,76.85
2023-04-24T05:26:49.520Z,76.87
2023-04-24T05:29:20.579Z,76.84
2023-04-24T05:31:47.963Z,76.83
2023-04-24T05:34:17.221Z,76.91
2023-04-24T05:36:45.992Z,76.66
2023-04-24T05:39:12.896Z,76.98
2023-04-24T05:41:39.679Z,76.80
2023-04-24T05:44:06.494Z,76.62
2023-04-24T05:46:33.429Z,76.82
2023-04-24T05:49:00.280Z,76.89
2023-04-24T05:51:27.593Z,76.45
2023-04-24T05:53:54.807Z,76.64
2023-04-24T05:56:21.981Z,76.54
2023-04-24T05:58:49.523Z,76.15
2023-04-24T06:01:16.776Z,76.11
2023-04-24T06:03:47.399Z,76.17
2023-04-24T06:06:14.772Z,75.67
2023-04-24T06:08:43.659Z,75.62
2023-04-24T06:11:11.035Z,75.56
2023-04-24T06:13:39.195Z,75.37
2023-04-24T06:16:28.715Z,75.14
2023-04-24T06:19:01.695Z,74.87
2023-04-24T06:21:28.820Z,74.60
2023-04-24T06:23:57.265Z,74.15
2023-04-24T06:26:26.159Z,73.81
2023-04-24T06:28:54.896Z,74.13
2023-04-24T06:31:21.803Z,73.83
2023-04-24T06:33:50.255Z,73.90
2023-04-24T06:36:17.257Z,73.56
2023-04-24T06:38:44.094Z,73.50
2023-04-24T06:41:11.478Z,73.31
2023-04-24T06:43:38.235Z,72.50
2023-04-24T06:46:05.171Z,72.59
2023-04-24T06:48:31.970Z,72.61
2023-04-24T06:51:01.295Z,72.36
2023-04-24T06:53:28.650Z,72.32
2023-04-24T06:55:56.072Z,72.40
2023-04-24T06:58:22.834Z,72.15
2023-04-24T07:00:49.579Z,72.15
2023-04-24T07:03:16.551Z,71.98
2023-04-24T07:05:43.718Z,71.79
2023-04-24T07:08:12.581Z,71.25
2023-04-24T07:10:39.363Z,71.23
2023-04-24T07:13:06.415Z,71.13
2023-04-24T07:15:33.589Z,70.96
2023-04-24T07:18:01.658Z,70.74
2023-04-24T07:20:29.441Z,70.37
2023-04-24T07:22:56.392Z,70.11
2023-04-24T07:25:23.198Z,69.67
2023-04-24T07:27:50.295Z,69.98
2023-04-24T07:30:17.327Z,69.75
2023-04-24T07:32:44.207Z,69.49
2023-04-24T07:35:11.333Z,69.80
2023-04-24T07:37:38.183Z,69.38
2023-04-24T07:40:05.622Z,69.31
2023-04-24T07:42:32.352Z,68.96
2023-04-24T07:45:00.934Z,68.85
2023-04-24T07:47:28.132Z,68.83
2023-04-24T07:49:55.040Z,68.59
2023-04-24T07:52:21.842Z,68.18
2023-04-24T07:54:48.749Z,68.25
2023-04-24T07:57:15.777Z,67.86
2023-04-24T07:59:42.959Z,67.71
2023-04-24T08:02:10.959Z,67.04
2023-04-24T08:04:40.484Z,66.73
2023-04-24T08:07:07.275Z,66.52
2023-04-24T08:09:34.126Z,65.96
2023-04-24T08:12:01.032Z,65.60
2023-04-24T08:14:27.881Z,65.25
2023-04-24T08:16:56.550Z,64.74
2023-04-24T08:19:23.524Z,64.39
2023-04-24T08:21:50.311Z,64.13
2023-04-24T08:24:17.081Z,63.39
2023-04-24T08:26:43.974Z,63.30
2023-04-24T08:29:13.618Z,63.13
2023-04-24T08:31:40.523Z,62.44
2023-04-24T08:34:07.350Z,61.27
2023-04-24T08:36:46.013Z,60.64
2023-04-24T08:39:14.200Z,60.53
2023-04-24T08:41:44.212Z,60.42
2023-04-24T08:44:11.401Z,60.09
2023-04-24T08:46:38.663Z,59.75
2023-04-24T08:49:06.016Z,59.62
2023-04-24T08:51:32.889Z,59.19
2023-04-24T08:53:59.695Z,59.13
2023-04-24T08:56:27.033Z,58.87
2023-04-24T08:58:55.204Z,58.17
2023-04-24T09:01:22.380Z,58.18
2023-04-24T09:03:50.333Z,57.91
2023-04-24T09:06:19.068Z,57.66
2023-04-24T09:08:46.722Z,57.37
2023-04-24T09:11:13.526Z,57.33
2023-04-24T09:13:40.706Z,57.75
2023-04-24T09:16:07.511Z,57.81
2023-04-24T09:18:36.412Z,57.83
2023-04-24T09:21:06.096Z,57.42
2023-04-24T09:23:33.377Z,57.17
2023-04-24T09:26:02.093Z,56.95
2023-04-24T09:28:33.676Z,56.93
2023-04-24T09:31:10.618Z,56.43
2023-04-24T09:33:37.870Z,57.02
2023-04-24T09:36:05.270Z,57.34
2023-04-24T09:38:33.902Z,56.67
2023-04-24T09:41:04.239Z,56.62
2023-04-24T09:43:31.536Z,56.45
2023-04-24T09:45:59.962Z,56.84
2023-04-24T09:48:38.234Z,56.36
2023-04-24T09:51:08.408Z,56.94
2023-04-24T09:53:35.223Z,56.83
2023-04-24T09:56:13.593Z,57.08
2023-04-24T09:58:40.505Z,56.91
2023-04-24T10:01:07.366Z,57.30
2023-04-24T10:03:35.251Z,57.22
2023-04-24T10:06:10.431Z,56.69
2023-04-24T10:08:38.766Z,56.69
2023-04-24T10:11:05.804Z,56.92
2023-04-24T10:13:33.571Z,56.48
2023-04-24T10:16:02.188Z,56.53
2023-04-24T10:18:29.377Z,56.39
2023-04-24T10:20:56.315Z,56.59
2023-04-24T10:23:24.353Z,56.63
2023-04-24T10:25:52.231Z,56.90
2023-04-24T10:28:20.294Z,57.03
2023-04-24T10:30:47.126Z,56.94
2023-04-24T10:33:15.049Z,56.96
2023-04-24T10:35:44.237Z,56.63
2023-04-24T10:38:13.785Z,56.81
2023-04-24T10:40:40.791Z,56.49
2023-04-24T10:43:10.794Z,56.88
2023-04-24T10:45:38.614Z,57.31
2023-04-24T10:48:11.941Z,56.99
2023-04-24T10:50:47.613Z,56.99
2023-04-24T10:53:20.398Z,57.23
2023-04-24T10:55:50.322Z,57.17
2023-04-24T10:58:18.218Z,57.36
2023-04-24T11:00:46.283Z,57.37
2023-04-24T11:03:28.070Z,57.06
2023-04-24T11:05:57.491Z,57.08
2023-04-24T11:08:31.685Z,56.97
2023-04-24T11:11:01.251Z,57.16
2023-04-24T11:13:49.751Z,57.34
2023-04-24T11:16:22.836Z,57.85
2023-04-24T11:18:55.525Z,58.08
2023-04-24T11:21:23.695Z,57.99
2023-04-24T11:23:51.821Z,57.94
2023-04-24T11:26:25.588Z,57.64
2023-04-24T11:28:52.355Z,57.46
2023-04-24T11:31:43.261Z,57.16
2023-04-24T11:34:11.897Z,56.95
2023-04-24T11:36:39.012Z,57.08
2023-04-24T11:39:06.278Z,57.14
2023-04-24T11:41:34.717Z,56.93
2023-04-24T11:44:02.248Z,56.70
2023-04-24T11:46:31.106Z,56.30
2023-04-24T11:48:58.146Z,56.40
2023-04-24T11:51:30.679Z,56.28
2023-04-24T11:54:04.469Z,56.21
2023-04-24T11:56:31.535Z,55.78
2023-04-24T11:58:58.313Z,55.71
2023-04-24T12:01:25.136Z,55.77
2023-04-24T12:03:52.693Z,56.24
2023-04-24T12:06:20.588Z,56.52
2023-04-24T12:08:49.000Z,57.17
2023-04-24T12:11:19.136Z,59.09
2023-04-24T12:13:46.425Z,60.05
2023-04-24T12:16:13.970Z,60.55
2023-04-24T12:18:47.250Z,61.68
2023-04-24T12:21:21.326Z,61.93
2023-04-24T12:23:49.905Z,61.67
2023-04-24T12:26:20.504Z,61.86
2023-04-24T12:28:48.146Z,61.75
2023-04-24T12:31:15.030Z,62.11
2023-04-24T12:33:41.979Z,61.89
2023-04-24T12:36:11.428Z,62.16
2023-04-24T12:38:41.502Z,61.46
2023-04-24T12:41:11.014Z,61.09
2023-04-24T12:43:38.280Z,60.90
2023-04-24T12:46:06.084Z,61.00
2023-04-24T12:48:33.447Z,60.58
2023-04-24T12:51:02.771Z,59.97
2023-04-24T12:53:33.160Z,59.56
2023-04-24T12:55:59.922Z,59.41
2023-04-24T12:58:26.996Z,58.90
2023-04-24T13:00:53.901Z,58.45
2023-04-24T13:03:21.313Z,58.12
2023-04-24T13:05:48.423Z,58.02
2023-04-24T13:08:15.289Z,58.10
2023-04-24T13:10:42.353Z,56.91
2023-04-24T13:13:09.861Z,56.30
2023-04-24T13:15:36.810Z,55.16
2023-04-24T13:18:03.724Z,54.88
2023-04-24T13:20:30.706Z,53.88
2023-04-24T13:22:57.573Z,54.17
2023-04-24T13:25:24.801Z,54.74
2023-04-24T13:27:52.018Z,54.98
2023-04-24T13:30:18.933Z,54.66
2023-04-24T13:32:45.839Z,54.13
2023-04-24T13:35:12.783Z,53.86
2023-04-24T13:37:39.548Z,53.55
2023-04-24T13:40:07.331Z,52.94
2023-04-24T13:42:34.370Z,52.74
2023-04-24T13:45:05.955Z,52.75
2023-04-24T13:47:37.997Z,52.59
2023-04-24T13:50:05.249Z,52.72
2023-04-24T13:52:31.990Z,52.80
2023-04-24T13:54:58.785Z,53.88
2023-04-24T13:57:25.630Z,54.88
2023-04-24T13:59:52.441Z,55.67
2023-04-24T14:02:19.310Z,56.22
2023-04-24T14:04:46.340Z,56.34
2023-04-24T14:07:13.273Z,55.64
2023-04-24T14:09:40.005Z,55.34
2023-04-24T14:12:08.103Z,55.54
2023-04-24T14:14:34.923Z,55.56
2023-04-24T14:17:01.765Z,55.22
2023-04-24T14:19:28.611Z,54.73
2023-04-24T14:21:56.796Z,53.56
2023-04-24T14:24:23.566Z,52.95
2023-04-24T14:26:50.339Z,51.76
2023-04-24T14:29:17.955Z,51.23
2023-04-24T14:31:44.809Z,51.36
2023-04-24T14:34:11.788Z,51.06
2023-04-24T14:36:38.941Z,49.96
2023-04-24T14:39:08.423Z,49.54
2023-04-24T14:41:40.373Z,48.35
2023-04-24T14:44:07.570Z,47.31
2023-04-24T14:46:34.546Z,46.28
2023-04-24T14:49:01.360Z,46.01
2023-04-24T14:51:28.321Z,46.16
2023-04-24T14:53:55.627Z,45.34
2023-04-24T14:56:22.519Z,44.61
2023-04-24T14:58:49.294Z,43.29
2023-04-24T15:01:17.702Z,43.37
2023-04-24T15:03:45.329Z,42.58
2023-04-24T15:06:12.553Z,42.04
2023-04-24T15:08:39.673Z,42.15
2023-04-24T15:11:06.524Z,42.02
2023-04-24T15:13:33.313Z,42.26
2023-04-24T15:16:00.193Z,41.87
2023-04-24T15:18:28.802Z,41.70
2023-04-24T15:20:56.242Z,41.13
2023-04-24T15:23:22.977Z,41.07
2023-04-24T15:25:49.954Z,40.78
2023-04-24T15:28:17.446Z,40.83
2023-04-24T15:30:44.213Z,40.56
2023-04-24T15:33:11.188Z,40.41
2023-04-24T15:35:38.169Z,40.31
2023-04-24T15:38:05.382Z,40.54
2023-04-24T15:40:32.187Z,41.23
2023-04-24T15:42:59.085Z,41.77
2023-04-24T15:45:26.437Z,41.56
2023-04-24T15:47:53.270Z,41.90
2023-04-24T15:50:21.913Z,41.75
2023-04-24T15:52:48.746Z,41.85
2023-04-24T15:55:15.565Z,41.85
2023-04-24T15:57:43.176Z,42.09
2023-04-24T16:00:11.244Z,42.27
2023-04-24T16:02:41.255Z,42.82
2023-04-24T16:05:08.997Z,42.66
2023-04-24T16:07:39.018Z,43.04
2023-04-24T16:10:06.643Z,43.25
2023-04-24T16:12:33.512Z,43.52
2023-04-24T16:15:00.390Z,43.62
2023-04-24T16:17:27.177Z,43.92
2023-04-24T16:19:53.919Z,43.99
2023-04-24T16:22:20.677Z,43.87
2023-04-24T16:24:48.256Z,43.79
2023-04-24T16:27:15.929Z,43.99
2023-04-24T16:29:42.808Z,44.07
2023-04-24T16:32:10.946Z,44.09
2023-04-24T16:34:37.785Z,43.78
2023-04-24T16:37:05.700Z,43.95
2023-04-24T16:39:32.565Z,44.05
2023-04-24T16:42:00.422Z,44.03
2023-04-24T16:44:28.218Z,44.33
2023-04-24T16:46:55.044Z,44.11
2023-04-24T16:49:23.910Z,44.67
2023-04-24T16:51:51.112Z,44.75
2023-04-24T16:54:17.925Z,45.09
2023-04-24T16:56:44.677Z,45.15
2023-04-24T16:59:11.618Z,46.49
2023-04-24T17:01:38.572Z,47.77
2023-04-24T17:04:05.647Z,48.55
2023-04-24T17:06:32.548Z,49.44
2023-04-24T17:09:00.725Z,50.10
2023-04-24T17:11:29.870Z,50.48
2023-04-24T17:14:00.030Z,51.48
2023-04-24T17:16:27.278Z,51.58
2023-04-24T17:18:54.432Z,52.10
2023-04-24T17:21:21.424Z,53.02
2023-04-24T17:23:48.237Z,52.79
2023-04-24T17:26:15.060Z,53.03
2023-04-24T17:28:42.017Z,52.95
2023-04-24T17:31:09.098Z,53.37
2023-04-24T17:33:35.976Z,54.47
2023-04-24T17:36:02.876Z,54.49
2023-04-24T17:38:30.206Z,55.01
2023-04-24T17:40:57.375Z,55.88
2023-04-24T17:43:24.730Z,56.89
2023-04-24T17:45:53.141Z,57.28
2023-04-24T17:48:20.173Z,57.57
2023-04-24T17:50:47.000Z,58.11
2023-04-24T17:53:14.209Z,58.15
2023-04-24T17:55:43.821Z,58.81
2023-04-24T17:58:10.897Z,59.37
2023-04-24T18:00:38.114Z,59.72
2023-04-24T18:03:06.558Z,60.27
2023-04-24T18:05:35.718Z,60.34
2023-04-24T18:08:02.883Z,60.52
2023-04-24T18:10:31.893Z,60.33
2023-04-24T18:12:59.311Z,60.44
2023-04-24T18:15:26.581Z,60.51
2023-04-24T18:17:56.455Z,60.77
2023-04-24T18:20:23.439Z,60.38
2023-04-24T18:22:50.281Z,60.49
2023-04-24T18:25:17.963Z,60.40
2023-04-24T18:27:44.728Z,60.92
2023-04-24T18:30:14.508Z,60.35
2023-04-24T18:32:42.550Z,60.56
2023-04-24T18:35:10.200Z,59.94
2023-04-24T18:37:37.044Z,59.45
2023-04-24T18:40:04.104Z,59.83
2023-04-24T18:42:31.042Z,59.30
2023-04-24T18:45:01.975Z,59.83
2023-04-24T18:47:31.390Z,60.00
2023-04-24T18:50:00.852Z,59.80
2023-04-24T18:52:27.754Z,60.08
2023-04-24T18:54:54.578Z,60.25
2023-04-24T18:57:21.686Z,60.03
2023-04-24T18:59:48.487Z,60.17
2023-04-24T19:02:16.243Z,60.54
2023-04-24T19:04:43.326Z,60.66
2023-04-24T19:07:10.338Z,60.90
2023-04-24T19:09:37.342Z,61.30
2023-04-24T19:12:04.486Z,61.43
2023-04-24T19:14:31.264Z,61.43
2023-04-24T19:16:58.521Z,61.93
2023-04-24T19:19:26.385Z,61.68
2023-04-24T19:21:53.489Z,61.88
2023-04-24T19:24:21.457Z,62.28
2023-04-24T19:26:48.296Z,61.97
2023-04-24T19:29:15.084Z,62.57
2023-04-24T19:31:41.991Z,62.60
2023-04-24T19:34:09.137Z,62.69
2023-04-24T19:36:36.704Z,62.96
2023-04-24T19:39:04.271Z,62.92
2023-04-24T19:41:31.447Z,63.25
2023-04-24T19:43:58.294Z,62.95
2023-04-24T19:46:27.695Z,63.31
2023-04-24T19:48:54.647Z,63.18
2023-04-24T19:51:21.636Z,63.40
2023-04-24T19:53:49.678Z,63.27
2023-04-24T19:56:16.686Z,63.58
2023-04-24T19:58:43.651Z,63.63
2023-04-24T20:01:10.677Z,63.73
2023-04-24T20:03:37.919Z,63.45
2023-04-24T20:06:04.980Z,63.64
2023-04-24T20:08:31.842Z,63.72
2023-04-24T20:10:58.879Z,63.64
2023-04-24T20:13:28.283Z,63.80
2023-04-24T20:15:55.250Z,63.98
2023-04-24T20:18:22.224Z,64.22
2023-04-24T20:20:49.293Z,63.88
2023-04-24T20:23:16.142Z,64.15
2023-04-24T20:25:42.878Z,64.09
2023-04-24T20:28:09.644Z,64.11
2023-04-24T20:30:38.933Z,64.39
2023-04-24T20:33:05.920Z,64.26
2023-04-24T20:35:32.709Z,64.19
2023-04-24T20:37:59.787Z,64.50
2023-04-24T20:40:28.251Z,64.69
2023-04-24T20:42:55.943Z,64.55
2023-04-24T20:45:24.348Z,64.84
2023-04-24T20:47:51.513Z,64.80
2023-04-24T20:50:19.003Z,65.03
2023-04-24T20:52:45.966Z,65.05
2023-04-24T20:55:12.888Z,65.11
2023-04-24T20:57:39.765Z,65.03
2023-04-24T21:00:08.930Z,64.97
2023-04-24T21:02:35.918Z,64.87
2023-04-24T21:05:03.549Z,64.67
2023-04-24T21:07:30.493Z,65.18
2023-04-24T21:09:57.278Z,65.72
2023-04-24T21:12:24.110Z,65.84
2023-04-24T21:14:51.487Z,65.95
2023-04-24T21:17:18.823Z,66.14
2023-04-24T21:19:45.624Z,66.39
2023-04-24T21:22:12.391Z,66.54
2023-04-24T21:24:39.165Z,66.67
2023-04-24T21:27:05.928Z,66.58
2023-04-24T21:29:33.025Z,66.77
2023-04-24T21:31:59.863Z,66.63
2023-04-24T21:34:26.697Z,66.78
2023-04-24T21:36:53.444Z,66.78
2023-04-24T21:39:20.244Z,67.22
2023-04-24T21:41:47.748Z,67.05
2023-04-24T21:44:14.635Z,67.11
2023-04-24T21:46:42.913Z,67.13
2023-04-24T21:49:09.846Z,67.49
2023-04-24T21:51:36.586Z,67.40
2023-04-24T21:54:03.976Z,67.09
2023-04-24T21:56:30.729Z,67.29
2023-04-24T21:58:57.755Z,67.56
2023-04-24T22:01:24.553Z,67.42
2023-04-24T22:03:51.714Z,67.21
2023-04-24T22:06:18.832Z,67.52
2023-04-24T22:08:47.861Z,67.47
2023-04-24T22:11:25.676Z,67.66
2023-04-24T22:13:54.356Z,67.63
2023-04-24T22:16:23.077Z,67.50
2023-04-24T22:18:50.539Z,67.43
2023-04-24T22:21:17.564Z,67.10
2023-04-24T22:23:44.523Z,67.48
2023-04-24T22:26:11.311Z,67.49
2023-04-24T22:28:38.200Z,67.82
2023-04-24T22:31:05.055Z,67.46
2023-04-24T22:33:31.824Z,67.72
2023-04-24T22:35:58.563Z,67.75
2023-04-24T22:38:25.389Z,67.94
2023-04-24T22:40:52.171Z,67.92
2023-04-24T22:43:19.110Z,68.28
2023-04-24T22:45:45.992Z,68.31
2023-04-24T22:48:12.767Z,68.48
2023-04-24T22:50:39.556Z,68.85
2023-04-24T22:53:06.438Z,69.07
2023-04-24T22:55:33.203Z,69.19
2023-04-24T22:58:00.989Z,69.24
2023-04-24T23:00:27.917Z,69.83
2023-04-24T23:02:54.828Z,70.00
2023-04-24T23:05:22.811Z,69.77
2023-04-24T23:07:49.615Z,70.02
2023-04-24T23:10:16.735Z,70.17
2023-04-24T23:12:43.903Z,70.27
2023-04-24T23:15:12.191Z,70.27
2023-04-24T23:17:39.272Z,69.96
2023-04-24T23:20:06.741Z,69.85
2023-04-24T23:22:34.009Z,70.19
2023-04-24T23:25:01.391Z,69.96
2023-04-24T23:27:28.153Z,69.93
2023-04-24T23:29:54.916Z,70.10
2023-04-24T23:32:21.793Z,69.85
2023-04-24T23:34:48.646Z,69.61
2023-04-24T23:37:17.310Z,69.84
2023-04-24T23:39:46.046Z,69.34
2023-04-24T23:42:12.821Z,69.27
2023-04-24T23:44:39.593Z,69.02
2023-04-24T23:47:06.575Z,69.44
2023-04-24T23:49:33.366Z,69.18
2023-04-24T23:52:00.236Z,69.00
2023-04-24T23:54:27.025Z,69.00
2023-04-24T23:56:53.752Z,69.22
2023-04-24T23:59:21.743Z,69.15
